sensor_id;sensor_type;location;lat;lon;timestamp;P1;durP1;ratioP1;P2;durP2;ratioP2
16242;SDS011;11719;51.052;6.982;2024-01-15T00:01:30;18.17;;;7.07;;
16242;SDS011;11719;51.052;6.982;2024-01-15T00:03:56;13.53;;;6.50;;
16242;SDS011;11719;51.052;6.982;2024-01-15T00:06:22;16.30;;;5.33;;
16242;SDS011;11719;51.052;6.982;2024-01-15T00:08:48;12.80;;;6.40;;
16242;SDS011;11719;51.052;6.982;2024-01-15T00:11:13;14.57;;;6.17;;
16242;SDS011;11719;51.052;6.982;2024-01-15T00:13:42;17.03;;;7.50;;
16242;SDS011;11719;51.052;6.982;2024-01-15T00:16:10;12.83;;;6.20;;
16242;SDS011;11719;51.052;6.982;2024-01-15T00:18:37;12.80;;;6.17;;
16242;SDS011;11719;51.052;6.982;2024-01-15T00:21:03;16.50;;;6.40;;
16242;SDS011;11719;51.052;6.982;2024-01-15T00:23:29;22.87;;;8.03;;
16242;SDS011;11719;51.052;6.982;2024-01-15T00:25:55;14.53;;;6.77;;
16242;SDS011;11719;51.052;6.982;2024-01-15T00:28:21;13.30;;;5.97;;
16242;SDS011;11719;51.052;6.982;2024-01-15T00:30:47;16.30;;;7.13;;
16242;SDS011;11719;51.052;6.982;2024-01-15T00:33:15;18.70;;;7.33;;
16242;SDS011;11719;51.052;6.982;2024-01-15T00:35:41;13.63;;;6.53;;
16242;SDS011;11719;51.052;6.982;2024-01-15T00:38:10;16.13;;;6.77;;
16242;SDS011;11719;51.052;6.982;2024-01-15T00:40:35;17.20;;;6.90;;
16242;SDS011;11719;51.052;6.982;2024-01-15T00:43:01;20.57;;;7.77;;
16242;SDS011;11719;51.052;6.982;2024-01-15T00:45:27;17.80;;;7.93;;
16242;SDS011;11719;51.052;6.982;2024-01-15T00:47:53;18.80;;;7.20;;
16242;SDS011;11719;51.052;6.982;2024-01-15T00:50:21;18.87;;;7.10;;
16242;SDS011;11719;51.052;6.982;2024-01-15T00:52:47;15.77;;;6.93;;
16242;SDS011;11719;51.052;6.982;2024-01-15T00:55:13;14.70;;;6.40;;
16242;SDS011;11719;51.052;6.982;2024-01-15T00:57:39;18.67;;;7.67;;
16242;SDS011;11719;51.052;6.982;2024-01-15T01:00:07;16.07;;;7.17;;
16242;SDS011;11719;51.052;6.982;2024-01-15T01:02:36;14.60;;;6.80;;
16242;SDS011;11719;51.052;6.982;2024-01-15T01:05:02;19.40;;;8.23;;
16242;SDS011;11719;51.052;6.982;2024-01-15T01:07:29;17.90;;;6.97;;
16242;SDS011;11719;51.052;6.982;2024-01-15T01:09:54;17.80;;;6.93;;
16242;SDS011;11719;51.052;6.982;2024-01-15T01:12:20;16.87;;;7.50;;
16242;SDS011;11719;51.052;6.982;2024-01-15T01:14:46;18.40;;;7.70;;
16242;SDS011;11719;51.052;6.982;2024-01-15T01:17:12;19.07;;;7.10;;
16242;SDS011;11719;51.052;6.982;2024-01-15T01:19:38;21.30;;;7.47;;
16242;SDS011;11719;51.052;6.982;2024-01-15T01:22:04;17.00;;;6.70;;
16242;SDS011;11719;51.052;6.982;2024-01-15T01:24:30;16.93;;;7.53;;
16242;SDS011;11719;51.052;6.982;2024-01-15T01:26:55;17.33;;;6.87;;
16242;SDS011;11719;51.052;6.982;2024-01-15T01:29:21;14.10;;;6.83;;
16242;SDS011;11719;51.052;6.982;2024-01-15T01:31:48;14.60;;;6.23;;
16242;SDS011;11719;51.052;6.982;2024-01-15T01:34:14;16.17;;;6.83;;
16242;SDS011;11719;51.052;6.982;2024-01-15T01:36:41;16.20;;;6.53;;
16242;SDS011;11719;51.052;6.982;2024-01-15T01:39:07;15.87;;;7.00;;
16242;SDS011;11719;51.052;6.982;2024-01-15T01:41:34;12.33;;;5.37;;
16242;SDS011;11719;51.052;6.982;2024-01-15T01:44:00;14.40;;;6.73;;
16242;SDS011;11719;51.052;6.982;2024-01-15T01:46:28;15.70;;;6.13;;
16242;SDS011;11719;51.052;6.982;2024-01-15T01:48:54;17.63;;;6.83;;
16242;SDS011;11719;51.052;6.982;2024-01-15T01:51:24;15.73;;;6.50;;
16242;SDS011;11719;51.052;6.982;2024-01-15T01:53:50;17.97;;;7.20;;
16242;SDS011;11719;51.052;6.982;2024-01-15T01:56:17;15.93;;;7.20;;
16242;SDS011;11719;51.052;6.982;2024-01-15T01:58:43;19.67;;;7.57;;
16242;SDS011;11719;51.052;6.982;2024-01-15T02:01:10;16.30;;;7.30;;
16242;SDS011;11719;51.052;6.982;2024-01-15T02:03:38;21.83;;;7.93;;
16242;SDS011;11719;51.052;6.982;2024-01-15T02:06:05;13.63;;;6.47;;
16242;SDS011;11719;51.052;6.982;2024-01-15T02:08:31;12.30;;;6.10;;
16242;SDS011;11719;51.052;6.982;2024-01-15T02:10:57;12.80;;;6.93;;
16242;SDS011;11719;51.052;6.982;2024-01-15T02:13:23;17.90;;;6.93;;
16242;SDS011;11719;51.052;6.982;2024-01-15T02:15:49;12.27;;;5.70;;
16242;SDS011;11719;51.052;6.982;2024-01-15T02:18:14;14.17;;;6.00;;
16242;SDS011;11719;51.052;6.982;2024-01-15T02:20:40;15.57;;;6.47;;
16242;SDS011;11719;51.052;6.982;2024-01-15T02:23:13;10.60;;;5.57;;
16242;SDS011;11719;51.052;6.982;2024-01-15T02:25:44;19.63;;;7.33;;
16242;SDS011;11719;51.052;6.982;2024-01-15T02:28:12;15.97;;;6.63;;
16242;SDS011;11719;51.052;6.982;2024-01-15T02:30:41;13.83;;;6.17;;
16242;SDS011;11719;51.052;6.982;2024-01-15T02:33:08;12.63;;;6.97;;
16242;SDS011;11719;51.052;6.982;2024-01-15T02:35:35;15.60;;;6.70;;
16242;SDS011;11719;51.052;6.982;2024-01-15T02:38:02;16.87;;;6.87;;
16242;SDS011;11719;51.052;6.982;2024-01-15T02:40:30;12.00;;;5.83;;
16242;SDS011;11719;51.052;6.982;2024-01-15T02:42:59;15.37;;;7.20;;
16242;SDS011;11719;51.052;6.982;2024-01-15T02:45:25;15.07;;;6.87;;
16242;SDS011;11719;51.052;6.982;2024-01-15T02:47:51;11.27;;;5.67;;
16242;SDS011;11719;51.052;6.982;2024-01-15T02:50:16;15.20;;;6.70;;
16242;SDS011;11719;51.052;6.982;2024-01-15T02:52:42;12.87;;;6.37;;
16242;SDS011;11719;51.052;6.982;2024-01-15T02:55:08;13.17;;;5.90;;
16242;SDS011;11719;51.052;6.982;2024-01-15T02:57:34;11.63;;;5.83;;
16242;SDS011;11719;51.052;6.982;2024-01-15T03:00:00;18.17;;;7.27;;
16242;SDS011;11719;51.052;6.982;2024-01-15T03:02:26;18.30;;;6.20;;
16242;SDS011;11719;51.052;6.982;2024-01-15T03:04:52;16.17;;;6.80;;
16242;SDS011;11719;51.052;6.982;2024-01-15T03:07:17;13.63;;;6.27;;
16242;SDS011;11719;51.052;6.982;2024-01-15T03:09:44;16.73;;;5.97;;
16242;SDS011;11719;51.052;6.982;2024-01-15T03:12:09;15.70;;;6.53;;
16242;SDS011;11719;51.052;6.982;2024-01-15T03:14:36;14.17;;;5.93;;
16242;SDS011;11719;51.052;6.982;2024-01-15T03:17:02;11.13;;;5.83;;
16242;SDS011;11719;51.052;6.982;2024-01-15T03:19:27;11.80;;;5.27;;
16242;SDS011;11719;51.052;6.982;2024-01-15T03:21:56;9.53;;;4.93;;
16242;SDS011;11719;51.052;6.982;2024-01-15T03:24:25;15.97;;;6.03;;
16242;SDS011;11719;51.052;6.982;2024-01-15T03:26:51;14.70;;;5.97;;
16242;SDS011;11719;51.052;6.982;2024-01-15T03:29:17;14.73;;;6.00;;
16242;SDS011;11719;51.052;6.982;2024-01-15T03:31:42;13.10;;;5.97;;
16242;SDS011;11719;51.052;6.982;2024-01-15T03:34:08;10.80;;;4.93;;
16242;SDS011;11719;51.052;6.982;2024-01-15T03:36:34;13.93;;;5.30;;
16242;SDS011;11719;51.052;6.982;2024-01-15T03:39:00;9.33;;;4.60;;
16242;SDS011;11719;51.052;6.982;2024-01-15T03:41:28;12.13;;;5.30;;
16242;SDS011;11719;51.052;6.982;2024-01-15T03:43:53;13.60;;;5.60;;
16242;SDS011;11719;51.052;6.982;2024-01-15T03:46:19;11.73;;;5.30;;
16242;SDS011;11719;51.052;6.982;2024-01-15T03:48:45;13.23;;;5.00;;
16242;SDS011;11719;51.052;6.982;2024-01-15T03:51:10;11.50;;;5.87;;
16242;SDS011;11719;51.052;6.982;2024-01-15T03:53:37;9.77;;;5.77;;
16242;SDS011;11719;51.052;6.982;2024-01-15T03:56:04;13.70;;;5.90;;
16242;SDS011;11719;51.052;6.982;2024-01-15T03:58:30;20.13;;;6.80;;
16242;SDS011;11719;51.052;6.982;2024-01-15T04:00:55;12.60;;;5.70;;
16242;SDS011;11719;51.052;6.982;2024-01-15T04:03:21;11.23;;;5.90;;
16242;SDS011;11719;51.052;6.982;2024-01-15T04:05:47;13.83;;;6.17;;
16242;SDS011;11719;51.052;6.982;2024-01-15T04:08:13;10.40;;;5.53;;
16242;SDS011;11719;51.052;6.982;2024-01-15T04:10:38;12.80;;;5.80;;
16242;SDS011;11719;51.052;6.982;2024-01-15T04:13:04;12.83;;;4.93;;
16242;SDS011;11719;51.052;6.982;2024-01-15T04:15:30;16.77;;;6.17;;
16242;SDS011;11719;51.052;6.982;2024-01-15T04:17:56;13.43;;;6.00;;
16242;SDS011;11719;51.052;6.982;2024-01-15T04:20:26;13.67;;;5.80;;
16242;SDS011;11719;51.052;6.982;2024-01-15T04:22:52;10.93;;;5.70;;
16242;SDS011;11719;51.052;6.982;2024-01-15T04:25:17;12.50;;;6.30;;
16242;SDS011;11719;51.052;6.982;2024-01-15T04:27:43;12.17;;;5.97;;
16242;SDS011;11719;51.052;6.982;2024-01-15T04:30:09;10.43;;;5.50;;
16242;SDS011;11719;51.052;6.982;2024-01-15T04:32:35;14.37;;;6.23;;
16242;SDS011;11719;51.052;6.982;2024-01-15T04:35:01;10.57;;;5.10;;
16242;SDS011;11719;51.052;6.982;2024-01-15T04:37:27;15.00;;;6.23;;
16242;SDS011;11719;51.052;6.982;2024-01-15T04:39:53;10.43;;;5.83;;
16242;SDS011;11719;51.052;6.982;2024-01-15T04:42:20;9.77;;;5.33;;
16242;SDS011;11719;51.052;6.982;2024-01-15T04:44:46;9.97;;;5.13;;
16242;SDS011;11719;51.052;6.982;2024-01-15T04:47:12;14.63;;;5.97;;
16242;SDS011;11719;51.052;6.982;2024-01-15T04:49:38;14.47;;;5.90;;
16242;SDS011;11719;51.052;6.982;2024-01-15T04:52:04;11.73;;;4.77;;
16242;SDS011;11719;51.052;6.982;2024-01-15T04:54:30;14.30;;;6.13;;
16242;SDS011;11719;51.052;6.982;2024-01-15T04:56:55;8.77;;;4.33;;
16242;SDS011;11719;51.052;6.982;2024-01-15T04:59:21;11.93;;;4.93;;
16242;SDS011;11719;51.052;6.982;2024-01-15T05:01:47;8.70;;;4.30;;
16242;SDS011;11719;51.052;6.982;2024-01-15T05:04:16;10.47;;;4.67;;
16242;SDS011;11719;51.052;6.982;2024-01-15T05:06:45;10.33;;;4.10;;
16242;SDS011;11719;51.052;6.982;2024-01-15T05:09:10;11.13;;;4.70;;
16242;SDS011;11719;51.052;6.982;2024-01-15T05:11:38;6.50;;;4.07;;
16242;SDS011;11719;51.052;6.982;2024-01-15T05:14:04;10.80;;;4.80;;
16242;SDS011;11719;51.052;6.982;2024-01-15T05:16:32;10.27;;;5.07;;
16242;SDS011;11719;51.052;6.982;2024-01-15T05:18:58;8.73;;;4.73;;
16242;SDS011;11719;51.052;6.982;2024-01-15T05:21:24;12.90;;;5.20;;
16242;SDS011;11719;51.052;6.982;2024-01-15T05:23:50;9.43;;;5.00;;
16242;SDS011;11719;51.052;6.982;2024-01-15T05:26:15;8.73;;;4.47;;
16242;SDS011;11719;51.052;6.982;2024-01-15T05:28:41;9.57;;;4.83;;
16242;SDS011;11719;51.052;6.982;2024-01-15T05:31:10;10.80;;;4.97;;
16242;SDS011;11719;51.052;6.982;2024-01-15T05:33:36;7.70;;;4.20;;
16242;SDS011;11719;51.052;6.982;2024-01-15T05:36:02;9.50;;;4.63;;
16242;SDS011;11719;51.052;6.982;2024-01-15T05:38:28;8.67;;;4.00;;
16242;SDS011;11719;51.052;6.982;2024-01-15T05:40:54;9.77;;;4.07;;
16242;SDS011;11719;51.052;6.982;2024-01-15T05:43:20;13.93;;;4.80;;
16242;SDS011;11719;51.052;6.982;2024-01-15T05:45:46;12.23;;;4.40;;
16242;SDS011;11719;51.052;6.982;2024-01-15T05:48:12;6.13;;;3.83;;
16242;SDS011;11719;51.052;6.982;2024-01-15T05:50:38;8.63;;;3.90;;
16242;SDS011;11719;51.052;6.982;2024-01-15T05:53:04;9.37;;;4.03;;
16242;SDS011;11719;51.052;6.982;2024-01-15T05:55:30;7.03;;;4.13;;
16242;SDS011;11719;51.052;6.982;2024-01-15T05:57:56;9.30;;;4.10;;
16242;SDS011;11719;51.052;6.982;2024-01-15T06:00:22;5.73;;;3.27;;
16242;SDS011;11719;51.052;6.982;2024-01-15T06:02:47;7.83;;;3.53;;
16242;SDS011;11719;51.052;6.982;2024-01-15T06:05:15;8.63;;;3.47;;
16242;SDS011;11719;51.052;6.982;2024-01-15T06:07:41;9.73;;;3.33;;
16242;SDS011;11719;51.052;6.982;2024-01-15T06:10:07;10.70;;;3.90;;
16242;SDS011;11719;51.052;6.982;2024-01-15T06:12:33;7.90;;;3.37;;
16242;SDS011;11719;51.052;6.982;2024-01-15T06:14:59;11.17;;;3.37;;
16242;SDS011;11719;51.052;6.982;2024-01-15T06:17:25;9.80;;;3.60;;
16242;SDS011;11719;51.052;6.982;2024-01-15T06:19:50;14.27;;;4.00;;
16242;SDS011;11719;51.052;6.982;2024-01-15T06:22:19;9.77;;;3.90;;
16242;SDS011;11719;51.052;6.982;2024-01-15T06:24:45;9.37;;;3.63;;
16242;SDS011;11719;51.052;6.982;2024-01-15T06:27:11;9.03;;;3.33;;
16242;SDS011;11719;51.052;6.982;2024-01-15T06:29:37;8.67;;;3.57;;
16242;SDS011;11719;51.052;6.982;2024-01-15T06:32:04;7.07;;;3.67;;
16242;SDS011;11719;51.052;6.982;2024-01-15T06:34:32;9.43;;;4.27;;
16242;SDS011;11719;51.052;6.982;2024-01-15T06:36:58;6.00;;;3.43;;
16242;SDS011;11719;51.052;6.982;2024-01-15T06:39:24;7.80;;;3.60;;
16242;SDS011;11719;51.052;6.982;2024-01-15T06:41:49;4.37;;;2.87;;
16242;SDS011;11719;51.052;6.982;2024-01-15T06:44:15;9.23;;;4.00;;
16242;SDS011;11719;51.052;6.982;2024-01-15T06:46:42;6.13;;;3.40;;
16242;SDS011;11719;51.052;6.982;2024-01-15T06:49:08;8.47;;;3.00;;
16242;SDS011;11719;51.052;6.982;2024-01-15T06:51:35;4.97;;;3.13;;
16242;SDS011;11719;51.052;6.982;2024-01-15T06:54:03;6.67;;;3.27;;
16242;SDS011;11719;51.052;6.982;2024-01-15T06:56:32;5.97;;;3.67;;
16242;SDS011;11719;51.052;6.982;2024-01-15T06:58:57;6.40;;;2.97;;
16242;SDS011;11719;51.052;6.982;2024-01-15T07:01:23;8.17;;;3.73;;
16242;SDS011;11719;51.052;6.982;2024-01-15T07:03:52;5.73;;;3.40;;
16242;SDS011;11719;51.052;6.982;2024-01-15T07:06:17;7.03;;;3.90;;
16242;SDS011;11719;51.052;6.982;2024-01-15T07:08:43;10.23;;;4.57;;
16242;SDS011;11719;51.052;6.982;2024-01-15T07:11:09;9.00;;;4.47;;
16242;SDS011;11719;51.052;6.982;2024-01-15T07:13:38;7.67;;;4.20;;
16242;SDS011;11719;51.052;6.982;2024-01-15T07:16:04;6.50;;;3.97;;
16242;SDS011;11719;51.052;6.982;2024-01-15T07:18:37;7.10;;;3.87;;
16242;SDS011;11719;51.052;6.982;2024-01-15T07:21:03;6.27;;;3.83;;
16242;SDS011;11719;51.052;6.982;2024-01-15T07:23:30;7.73;;;3.57;;
16242;SDS011;11719;51.052;6.982;2024-01-15T07:25:59;5.07;;;3.80;;
16242;SDS011;11719;51.052;6.982;2024-01-15T07:28:25;10.33;;;4.73;;
16242;SDS011;11719;51.052;6.982;2024-01-15T07:30:58;7.53;;;3.77;;
16242;SDS011;11719;51.052;6.982;2024-01-15T07:33:26;7.20;;;4.17;;
16242;SDS011;11719;51.052;6.982;2024-01-15T07:35:52;6.50;;;3.70;;
16242;SDS011;11719;51.052;6.982;2024-01-15T07:38:17;9.07;;;3.87;;
16242;SDS011;11719;51.052;6.982;2024-01-15T07:40:43;9.30;;;3.90;;
16242;SDS011;11719;51.052;6.982;2024-01-15T07:43:09;12.20;;;4.33;;
16242;SDS011;11719;51.052;6.982;2024-01-15T07:45:35;6.37;;;4.10;;
16242;SDS011;11719;51.052;6.982;2024-01-15T07:48:07;8.00;;;4.27;;
16242;SDS011;11719;51.052;6.982;2024-01-15T07:50:36;5.43;;;3.40;;
16242;SDS011;11719;51.052;6.982;2024-01-15T07:53:01;7.17;;;3.80;;
16242;SDS011;11719;51.052;6.982;2024-01-15T07:55:30;7.17;;;3.50;;
16242;SDS011;11719;51.052;6.982;2024-01-15T07:57:57;8.97;;;4.30;;
16242;SDS011;11719;51.052;6.982;2024-01-15T08:00:24;5.93;;;3.63;;
16242;SDS011;11719;51.052;6.982;2024-01-15T08:02:53;9.20;;;4.33;;
16242;SDS011;11719;51.052;6.982;2024-01-15T08:05:19;7.20;;;4.03;;
16242;SDS011;11719;51.052;6.982;2024-01-15T08:07:50;9.27;;;4.33;;
16242;SDS011;11719;51.052;6.982;2024-01-15T08:10:16;8.20;;;4.23;;
16242;SDS011;11719;51.052;6.982;2024-01-15T08:12:42;7.67;;;4.03;;
16242;SDS011;11719;51.052;6.982;2024-01-15T08:15:07;6.07;;;3.90;;
16242;SDS011;11719;51.052;6.982;2024-01-15T08:17:33;9.20;;;4.60;;
16242;SDS011;11719;51.052;6.982;2024-01-15T08:19:59;10.60;;;5.37;;
16242;SDS011;11719;51.052;6.982;2024-01-15T08:22:26;9.17;;;4.87;;
16242;SDS011;11719;51.052;6.982;2024-01-15T08:24:52;10.40;;;4.73;;
16242;SDS011;11719;51.052;6.982;2024-01-15T08:27:18;12.17;;;5.47;;
16242;SDS011;11719;51.052;6.982;2024-01-15T08:29:45;9.47;;;5.53;;
16242;SDS011;11719;51.052;6.982;2024-01-15T08:32:10;10.03;;;5.30;;
16242;SDS011;11719;51.052;6.982;2024-01-15T08:34:39;11.33;;;5.67;;
16242;SDS011;11719;51.052;6.982;2024-01-15T08:37:12;10.10;;;5.13;;
16242;SDS011;11719;51.052;6.982;2024-01-15T08:39:38;11.00;;;5.50;;
16242;SDS011;11719;51.052;6.982;2024-01-15T08:42:04;11.23;;;4.53;;
16242;SDS011;11719;51.052;6.982;2024-01-15T08:44:30;13.40;;;6.23;;
16242;SDS011;11719;51.052;6.982;2024-01-15T08:46:56;11.43;;;5.93;;
16242;SDS011;11719;51.052;6.982;2024-01-15T08:49:22;12.03;;;5.57;;
16242;SDS011;11719;51.052;6.982;2024-01-15T08:51:47;8.47;;;4.63;;
16242;SDS011;11719;51.052;6.982;2024-01-15T08:54:13;9.77;;;4.63;;
16242;SDS011;11719;51.052;6.982;2024-01-15T08:56:40;10.80;;;4.67;;
16242;SDS011;11719;51.052;6.982;2024-01-15T08:59:05;9.33;;;4.73;;
16242;SDS011;11719;51.052;6.982;2024-01-15T09:01:32;10.90;;;5.03;;
16242;SDS011;11719;51.052;6.982;2024-01-15T09:04:00;9.50;;;4.77;;
16242;SDS011;11719;51.052;6.982;2024-01-15T09:06:26;10.27;;;4.30;;
16242;SDS011;11719;51.052;6.982;2024-01-15T09:08:55;9.93;;;5.50;;
16242;SDS011;11719;51.052;6.982;2024-01-15T09:11:23;8.83;;;4.93;;
16242;SDS011;11719;51.052;6.982;2024-01-15T09:13:49;11.03;;;5.03;;
16242;SDS011;11719;51.052;6.982;2024-01-15T09:16:16;8.93;;;5.10;;
16242;SDS011;11719;51.052;6.982;2024-01-15T09:18:45;13.17;;;5.00;;
16242;SDS011;11719;51.052;6.982;2024-01-15T09:21:14;12.87;;;4.87;;
16242;SDS011;11719;51.052;6.982;2024-01-15T09:23:40;9.60;;;5.10;;
16242;SDS011;11719;51.052;6.982;2024-01-15T09:26:14;8.77;;;4.40;;
16242;SDS011;11719;51.052;6.982;2024-01-15T09:28:45;8.83;;;4.97;;
16242;SDS011;11719;51.052;6.982;2024-01-15T09:31:11;10.57;;;5.57;;
16242;SDS011;11719;51.052;6.982;2024-01-15T09:33:37;8.03;;;5.00;;
16242;SDS011;11719;51.052;6.982;2024-01-15T09:36:12;9.07;;;4.37;;
16242;SDS011;11719;51.052;6.982;2024-01-15T09:38:39;7.57;;;4.20;;
16242;SDS011;11719;51.052;6.982;2024-01-15T09:41:06;9.63;;;4.30;;
16242;SDS011;11719;51.052;6.982;2024-01-15T09:43:37;6.70;;;3.93;;
16242;SDS011;11719;51.052;6.982;2024-01-15T09:46:03;7.33;;;4.00;;
16242;SDS011;11719;51.052;6.982;2024-01-15T09:48:30;10.60;;;5.47;;
16242;SDS011;11719;51.052;6.982;2024-01-15T09:50:58;4.87;;;3.20;;
16242;SDS011;11719;51.052;6.982;2024-01-15T09:53:28;6.93;;;3.33;;
16242;SDS011;11719;51.052;6.982;2024-01-15T09:55:58;8.40;;;3.30;;
16242;SDS011;11719;51.052;6.982;2024-01-15T09:58:24;11.90;;;3.50;;
16242;SDS011;11719;51.052;6.982;2024-01-15T10:00:51;4.40;;;2.33;;
16242;SDS011;11719;51.052;6.982;2024-01-15T10:03:18;3.53;;;2.30;;
16242;SDS011;11719;51.052;6.982;2024-01-15T10:05:44;4.07;;;2.53;;
16242;SDS011;11719;51.052;6.982;2024-01-15T10:08:09;4.00;;;2.23;;
16242;SDS011;11719;51.052;6.982;2024-01-15T10:10:36;4.20;;;2.77;;
16242;SDS011;11719;51.052;6.982;2024-01-15T10:13:05;5.53;;;2.97;;
16242;SDS011;11719;51.052;6.982;2024-01-15T10:15:35;5.23;;;2.70;;
16242;SDS011;11719;51.052;6.982;2024-01-15T10:18:03;4.30;;;2.90;;
16242;SDS011;11719;51.052;6.982;2024-01-15T10:20:31;3.43;;;2.73;;
16242;SDS011;11719;51.052;6.982;2024-01-15T10:22:58;3.50;;;2.47;;
16242;SDS011;11719;51.052;6.982;2024-01-15T10:25:23;3.60;;;2.80;;
16242;SDS011;11719;51.052;6.982;2024-01-15T10:28:03;3.97;;;2.43;;
16242;SDS011;11719;51.052;6.982;2024-01-15T10:30:29;2.93;;;2.20;;
16242;SDS011;11719;51.052;6.982;2024-01-15T10:32:57;3.10;;;2.67;;
16242;SDS011;11719;51.052;6.982;2024-01-15T10:35:33;4.60;;;2.33;;
16242;SDS011;11719;51.052;6.982;2024-01-15T10:37:59;4.73;;;2.37;;
16242;SDS011;11719;51.052;6.982;2024-01-15T10:40:27;4.50;;;2.60;;
16242;SDS011;11719;51.052;6.982;2024-01-15T10:42:53;4.73;;;3.60;;
16242;SDS011;11719;51.052;6.982;2024-01-15T10:45:20;3.80;;;2.90;;
16242;SDS011;11719;51.052;6.982;2024-01-15T10:47:46;3.03;;;1.90;;
16242;SDS011;11719;51.052;6.982;2024-01-15T10:50:12;4.97;;;2.13;;
16242;SDS011;11719;51.052;6.982;2024-01-15T10:52:38;3.50;;;2.30;;
16242;SDS011;11719;51.052;6.982;2024-01-15T10:55:08;3.67;;;2.03;;
16242;SDS011;11719;51.052;6.982;2024-01-15T10:57:38;2.83;;;2.33;;
16242;SDS011;11719;51.052;6.982;2024-01-15T11:00:07;2.87;;;1.83;;
16242;SDS011;11719;51.052;6.982;2024-01-15T11:02:39;2.47;;;1.80;;
16242;SDS011;11719;51.052;6.982;2024-01-15T11:05:06;2.17;;;1.53;;
16242;SDS011;11719;51.052;6.982;2024-01-15T11:07:32;2.37;;;1.43;;
16242;SDS011;11719;51.052;6.982;2024-01-15T11:09:58;1.20;;;1.00;;
16242;SDS011;11719;51.052;6.982;2024-01-15T11:12:24;2.13;;;1.10;;
16242;SDS011;11719;51.052;6.982;2024-01-15T11:14:50;2.00;;;1.33;;
16242;SDS011;11719;51.052;6.982;2024-01-15T11:17:16;1.53;;;1.17;;
16242;SDS011;11719;51.052;6.982;2024-01-15T11:19:47;3.00;;;1.40;;
16242;SDS011;11719;51.052;6.982;2024-01-15T11:24:54;1.67;;;1.27;;
16242;SDS011;11719;51.052;6.982;2024-01-15T11:27:39;1.87;;;0.93;;
16242;SDS011;11719;51.052;6.982;2024-01-15T11:30:12;1.40;;;0.97;;
16242;SDS011;11719;51.052;6.982;2024-01-15T11:32:38;3.33;;;1.50;;
16242;SDS011;11719;51.052;6.982;2024-01-15T11:35:08;3.10;;;1.20;;
16242;SDS011;11719;51.052;6.982;2024-01-15T11:40:19;1.83;;;1.00;;
16242;SDS011;11719;51.052;6.982;2024-01-15T11:42:45;1.27;;;0.70;;
16242;SDS011;11719;51.052;6.982;2024-01-15T11:45:21;1.90;;;1.17;;
16242;SDS011;11719;51.052;6.982;2024-01-15T11:47:59;2.27;;;0.63;;
16242;SDS011;11719;51.052;6.982;2024-01-15T11:50:39;2.23;;;1.00;;
16242;SDS011;11719;51.052;6.982;2024-01-15T11:53:16;1.33;;;0.70;;
16242;SDS011;11719;51.052;6.982;2024-01-15T11:55:53;1.00;;;0.50;;
16242;SDS011;11719;51.052;6.982;2024-01-15T11:58:25;0.47;;;0.47;;
16242;SDS011;11719;51.052;6.982;2024-01-15T12:00:51;1.20;;;1.10;;
16242;SDS011;11719;51.052;6.982;2024-01-15T12:03:17;1.03;;;0.70;;
16242;SDS011;11719;51.052;6.982;2024-01-15T12:05:46;1.97;;;1.07;;
16242;SDS011;11719;51.052;6.982;2024-01-15T12:08:20;0.70;;;0.60;;
16242;SDS011;11719;51.052;6.982;2024-01-15T12:10:51;1.80;;;1.00;;
16242;SDS011;11719;51.052;6.982;2024-01-15T12:13:17;4.53;;;1.23;;
16242;SDS011;11719;51.052;6.982;2024-01-15T12:15:46;1.63;;;1.10;;
16242;SDS011;11719;51.052;6.982;2024-01-15T12:18:16;1.03;;;1.00;;
16242;SDS011;11719;51.052;6.982;2024-01-15T12:20:44;2.13;;;1.07;;
16242;SDS011;11719;51.052;6.982;2024-01-15T12:23:14;4.33;;;1.73;;
16242;SDS011;11719;51.052;6.982;2024-01-15T12:25:40;3.03;;;1.43;;
16242;SDS011;11719;51.052;6.982;2024-01-15T12:28:09;2.50;;;1.80;;
16242;SDS011;11719;51.052;6.982;2024-01-15T12:30:35;6.50;;;1.90;;
16242;SDS011;11719;51.052;6.982;2024-01-15T12:33:06;2.97;;;2.10;;
16242;SDS011;11719;51.052;6.982;2024-01-15T12:35:33;3.70;;;1.73;;
16242;SDS011;11719;51.052;6.982;2024-01-15T12:38:03;2.13;;;1.77;;
16242;SDS011;11719;51.052;6.982;2024-01-15T12:40:30;2.20;;;1.53;;
16242;SDS011;11719;51.052;6.982;2024-01-15T12:42:59;2.37;;;1.60;;
16242;SDS011;11719;51.052;6.982;2024-01-15T12:45:26;4.30;;;1.67;;
16242;SDS011;11719;51.052;6.982;2024-01-15T12:47:55;2.60;;;1.57;;
16242;SDS011;11719;51.052;6.982;2024-01-15T12:50:23;4.50;;;1.60;;
16242;SDS011;11719;51.052;6.982;2024-01-15T12:52:50;2.63;;;1.60;;
16242;SDS011;11719;51.052;6.982;2024-01-15T12:55:16;2.07;;;1.50;;
16242;SDS011;11719;51.052;6.982;2024-01-15T12:57:42;3.70;;;1.50;;
16242;SDS011;11719;51.052;6.982;2024-01-15T13:00:08;5.10;;;2.00;;
16242;SDS011;11719;51.052;6.982;2024-01-15T13:02:41;1.50;;;1.13;;
16242;SDS011;11719;51.052;6.982;2024-01-15T13:05:08;2.97;;;2.07;;
16242;SDS011;11719;51.052;6.982;2024-01-15T13:07:36;3.50;;;1.60;;
16242;SDS011;11719;51.052;6.982;2024-01-15T13:10:02;2.47;;;1.67;;
16242;SDS011;11719;51.052;6.982;2024-01-15T13:12:28;4.10;;;1.60;;
16242;SDS011;11719;51.052;6.982;2024-01-15T13:14:54;4.80;;;1.60;;
16242;SDS011;11719;51.052;6.982;2024-01-15T13:17:21;2.00;;;1.50;;
16242;SDS011;11719;51.052;6.982;2024-01-15T13:19:47;1.93;;;1.33;;
16242;SDS011;11719;51.052;6.982;2024-01-15T13:22:13;6.77;;;1.97;;
16242;SDS011;11719;51.052;6.982;2024-01-15T13:24:39;4.73;;;1.40;;
16242;SDS011;11719;51.052;6.982;2024-01-15T13:27:05;4.87;;;1.30;;
16242;SDS011;11719;51.052;6.982;2024-01-15T13:29:33;0.97;;;0.93;;
16242;SDS011;11719;51.052;6.982;2024-01-15T13:31:59;2.63;;;1.33;;
16242;SDS011;11719;51.052;6.982;2024-01-15T13:34:25;3.47;;;1.67;;
16242;SDS011;11719;51.052;6.982;2024-01-15T13:36:51;4.37;;;1.80;;
16242;SDS011;11719;51.052;6.982;2024-01-15T13:39:18;4.30;;;1.47;;
16242;SDS011;11719;51.052;6.982;2024-01-15T13:41:48;2.40;;;0.97;;
16242;SDS011;11719;51.052;6.982;2024-01-15T13:44:20;2.97;;;1.70;;
16242;SDS011;11719;51.052;6.982;2024-01-15T13:46:46;6.37;;;1.17;;
16242;SDS011;11719;51.052;6.982;2024-01-15T13:49:12;1.20;;;0.93;;
16242;SDS011;11719;51.052;6.982;2024-01-15T13:51:39;2.83;;;1.03;;
16242;SDS011;11719;51.052;6.982;2024-01-15T13:54:05;3.33;;;1.23;;
16242;SDS011;11719;51.052;6.982;2024-01-15T13:56:31;3.97;;;1.50;;
16242;SDS011;11719;51.052;6.982;2024-01-15T13:58:57;5.07;;;1.20;;
16242;SDS011;11719;51.052;6.982;2024-01-15T14:01:24;0.97;;;0.80;;
16242;SDS011;11719;51.052;6.982;2024-01-15T14:03:50;4.43;;;1.17;;
16242;SDS011;11719;51.052;6.982;2024-01-15T14:06:19;3.10;;;1.20;;
16242;SDS011;11719;51.052;6.982;2024-01-15T14:08:45;1.50;;;1.00;;
16242;SDS011;11719;51.052;6.982;2024-01-15T14:11:11;1.87;;;1.20;;
16242;SDS011;11719;51.052;6.982;2024-01-15T14:13:37;1.23;;;1.00;;
16242;SDS011;11719;51.052;6.982;2024-01-15T14:16:03;2.77;;;1.07;;
16242;SDS011;11719;51.052;6.982;2024-01-15T14:18:30;1.50;;;1.20;;
16242;SDS011;11719;51.052;6.982;2024-01-15T14:20:58;1.43;;;1.30;;
16242;SDS011;11719;51.052;6.982;2024-01-15T14:23:23;1.73;;;0.87;;
16242;SDS011;11719;51.052;6.982;2024-01-15T14:25:49;1.77;;;1.33;;
16242;SDS011;11719;51.052;6.982;2024-01-15T14:28:15;1.50;;;0.90;;
16242;SDS011;11719;51.052;6.982;2024-01-15T14:30:41;1.23;;;0.90;;
16242;SDS011;11719;51.052;6.982;2024-01-15T14:33:07;0.80;;;0.80;;
16242;SDS011;11719;51.052;6.982;2024-01-15T14:35:35;4.20;;;1.30;;
16242;SDS011;11719;51.052;6.982;2024-01-15T14:38:01;1.47;;;0.80;;
16242;SDS011;11719;51.052;6.982;2024-01-15T14:40:27;2.50;;;1.20;;
16242;SDS011;11719;51.052;6.982;2024-01-15T14:42:54;1.57;;;1.10;;
16242;SDS011;11719;51.052;6.982;2024-01-15T14:45:20;3.07;;;0.90;;
16242;SDS011;11719;51.052;6.982;2024-01-15T14:47:52;1.73;;;0.80;;